createdAt,value
2023-01-05T00:00:10.584Z,35.0730
2023-01-05T00:00:21.752Z,35.0830
2023-01-05T00:00:33.017Z,35.1000
2023-01-05T00:00:44.133Z,35.1560
2023-01-05T00:00:55.511Z,35.1760
2023-01-05T00:01:06.606Z,35.1700
2023-01-05T00:01:17.734Z,35.1360
2023-01-05T00:01:28.796Z,35.1240
2023-01-05T00:01:39.939Z,35.0960
2023-01-05T00:01:51.055Z,35.0730
2023-01-05T00:02:02.251Z,35.1360
2023-01-05T00:02:15.298Z,35.1740
2023-01-05T00:02:30.346Z,35.3830
2023-01-05T00:02:41.606Z,35.3530
2023-01-05T00:02:52.765Z,35.2970
2023-01-05T00:03:03.959Z,35.2170
2023-01-05T00:03:15.154Z,35.1200
2023-01-05T00:03:26.374Z,35.1880
2023-01-05T00:03:37.464Z,35.2450
2023-01-05T00:03:48.558Z,35.2450
2023-01-05T00:03:59.673Z,35.2680
2023-01-05T00:04:10.877Z,35.2770
2023-01-05T00:04:22.132Z,35.2650
2023-01-05T00:04:33.387Z,35.2650
2023-01-05T00:04:44.525Z,35.2710
2023-01-05T00:04:55.638Z,35.2840
2023-01-05T00:05:06.839Z,35.2670
2023-01-05T00:05:18.043Z,35.2220
2023-01-05T00:05:29.238Z,35.2500
2023-01-05T00:05:40.279Z,35.2810
2023-01-05T00:05:51.359Z,35.3320
2023-01-05T00:06:02.623Z,35.3150
2023-01-05T00:06:13.677Z,35.3150
2023-01-05T00:06:24.929Z,35.3100
2023-01-05T00:06:35.983Z,35.3150
2023-01-05T00:06:47.074Z,35.3360
2023-01-05T00:06:58.210Z,35.3130
2023-01-05T00:07:09.423Z,35.3190
2023-01-05T00:07:20.593Z,35.3360
2023-01-05T00:07:31.809Z,35.3580
2023-01-05T00:07:42.882Z,35.3700
2023-01-05T00:07:53.955Z,35.3860
2023-01-05T00:08:05.074Z,35.4100
2023-01-05T00:08:16.281Z,35.4270
2023-01-05T00:08:31.485Z,35.4270
2023-01-05T00:08:44.321Z,35.6360
2023-01-05T00:08:55.417Z,35.5940
2023-01-05T00:09:06.530Z,35.5470
2023-01-05T00:09:17.578Z,35.5140
2023-01-05T00:09:28.597Z,35.5140
2023-01-05T00:09:39.804Z,35.5190
2023-01-05T00:09:50.883Z,35.5420
2023-01-05T00:10:01.970Z,35.5250
2023-01-05T00:10:13.079Z,35.5080
2023-01-05T00:10:24.284Z,35.4970
2023-01-05T00:10:35.352Z,35.5250
2023-01-05T00:10:46.393Z,35.5600
2023-01-05T00:10:57.484Z,35.6050
2023-01-05T00:11:08.575Z,35.6160
2023-01-05T00:11:19.638Z,35.6440
2023-01-05T00:11:30.690Z,35.6270
2023-01-05T00:11:41.759Z,35.6390
2023-01-05T00:11:52.912Z,35.7080
2023-01-05T00:12:03.981Z,35.7130
2023-01-05T00:12:15.044Z,35.6850
2023-01-05T00:12:26.198Z,35.5880
2023-01-05T00:12:37.305Z,35.5310
2023-01-05T00:12:48.348Z,35.5140
2023-01-05T00:12:59.479Z,35.5790
2023-01-05T00:13:10.554Z,35.6070
2023-01-05T00:13:21.782Z,35.6250
2023-01-05T00:13:32.868Z,35.6930
2023-01-05T00:13:43.960Z,35.6810
2023-01-05T00:13:55.165Z,35.5790
2023-01-05T00:14:06.238Z,35.4990
2023-01-05T00:14:17.301Z,35.4780
2023-01-05T00:14:28.453Z,35.4440
2023-01-05T00:14:39.643Z,35.4500
2023-01-05T00:14:50.848Z,35.4440
2023-01-05T00:15:01.896Z,35.4550
2023-01-05T00:15:12.957Z,35.4690
2023-01-05T00:15:24.139Z,35.5440
2023-01-05T00:15:35.318Z,35.6230
2023-01-05T00:15:46.523Z,35.6530
2023-01-05T00:15:57.712Z,35.5780
2023-01-05T00:16:08.996Z,35.5550
2023-01-05T00:16:20.072Z,35.5670
2023-01-05T00:16:31.205Z,35.5950
2023-01-05T00:16:42.350Z,35.6750
2023-01-05T00:16:53.435Z,35.7210
2023-01-05T00:17:04.600Z,35.7380
2023-01-05T00:17:15.642Z,35.7330
2023-01-05T00:17:26.687Z,35.7270
2023-01-05T00:17:37.891Z,35.6860
2023-01-05T00:17:49.072Z,35.6000
2023-01-05T00:18:00.283Z,35.5550
2023-01-05T00:18:11.477Z,35.5610
2023-01-05T00:18:22.678Z,35.6000
2023-01-05T00:18:33.872Z,35.6000
2023-01-05T00:18:45.084Z,35.6810
2023-01-05T00:18:56.278Z,35.7140
2023-01-05T00:19:07.476Z,35.7380
2023-01-05T00:19:18.672Z,35.8520
2023-01-05T00:19:29.881Z,35.8240
2023-01-05T00:19:40.973Z,35.7810
2023-01-05T00:19:52.025Z,35.6850
2023-01-05T00:20:03.158Z,35.6680
2023-01-05T00:20:14.197Z,35.6610
2023-01-05T00:20:25.282Z,35.6320
2023-01-05T00:20:36.441Z,35.6210
2023-01-05T00:20:47.665Z,35.5930
2023-01-05T00:20:58.836Z,35.6100
2023-01-05T00:21:10.274Z,35.6440
2023-01-05T00:21:21.339Z,35.6680
2023-01-05T00:21:32.363Z,35.6440
2023-01-05T00:21:43.423Z,35.6040
2023-01-05T00:21:54.554Z,35.5870
2023-01-05T00:22:05.594Z,35.6610
2023-01-05T00:22:16.682Z,35.6610
2023-01-05T00:22:27.795Z,35.6440
2023-01-05T00:22:38.862Z,35.6320
2023-01-05T00:22:49.937Z,35.6100
2023-01-05T00:23:01.111Z,35.5350
2023-01-05T00:23:12.275Z,35.5090
2023-01-05T00:23:23.482Z,35.5150
2023-01-05T00:23:34.542Z,35.5440
2023-01-05T00:23:45.614Z,35.5740
2023-01-05T00:23:56.758Z,35.6090
2023-01-05T00:24:07.963Z,35.6740
2023-01-05T00:24:19.153Z,35.7140
2023-01-05T00:24:30.245Z,35.6950
2023-01-05T00:24:41.314Z,35.6530
2023-01-05T00:24:52.387Z,35.6750
2023-01-05T00:25:09.313Z,35.6530
2023-01-05T00:25:20.424Z,35.8040
2023-01-05T00:25:31.483Z,35.7780
2023-01-05T00:25:42.696Z,35.7910
2023-01-05T00:25:53.781Z,35.7670
2023-01-05T00:26:04.853Z,35.7280
2023-01-05T00:26:15.992Z,35.7330
2023-01-05T00:26:27.163Z,35.7450
2023-01-05T00:26:38.235Z,35.7280
2023-01-05T00:26:49.298Z,35.7050
2023-01-05T00:27:00.389Z,35.7110
2023-01-05T00:27:11.453Z,35.7500
2023-01-05T00:27:22.522Z,35.7990
2023-01-05T00:27:33.562Z,35.8210
2023-01-05T00:27:44.676Z,35.7650
2023-01-05T00:27:55.805Z,35.6550
2023-01-05T00:28:06.879Z,35.5630
2023-01-05T00:28:17.953Z,35.5240
2023-01-05T00:28:29.075Z,35.5610
2023-01-05T00:28:40.288Z,35.4750
2023-01-05T00:28:51.480Z,35.4290
2023-01-05T00:29:02.681Z,35.4060
2023-01-05T00:29:13.878Z,35.4060
2023-01-05T00:29:25.072Z,35.4170
2023-01-05T00:29:36.278Z,35.5290
2023-01-05T00:29:47.494Z,35.5740
2023-01-05T00:29:58.584Z,35.5740
2023-01-05T00:30:09.654Z,35.5630
2023-01-05T00:30:20.771Z,35.5290
2023-01-05T00:30:31.968Z,35.4550
2023-01-05T00:30:43.031Z,35.4380
2023-01-05T00:30:54.124Z,35.4740
2023-01-05T00:31:05.238Z,35.4390
2023-01-05T00:31:16.382Z,35.4560
2023-01-05T00:31:27.483Z,35.4480
2023-01-05T00:31:38.723Z,35.4310
2023-01-05T00:31:49.850Z,35.4130
2023-01-05T00:32:01.060Z,35.4310
2023-01-05T00:32:12.143Z,35.4130
2023-01-05T00:32:23.192Z,35.4020
2023-01-05T00:32:34.261Z,35.5340
2023-01-05T00:32:45.318Z,35.5160
2023-01-05T00:32:56.377Z,35.5280
2023-01-05T00:33:07.484Z,35.5280
2023-01-05T00:33:18.697Z,35.6080
2023-01-05T00:33:29.717Z,35.7390
2023-01-05T00:33:40.824Z,35.7790
2023-01-05T00:33:51.963Z,35.6860
2023-01-05T00:34:03.172Z,35.5830
2023-01-05T00:34:14.381Z,35.6520
2023-01-05T00:34:25.560Z,35.6660
2023-01-05T00:34:36.662Z,35.6840
2023-01-05T00:34:47.738Z,35.7380
2023-01-05T00:34:58.870Z,35.7780
2023-01-05T00:35:09.961Z,35.7270
2023-01-05T00:35:21.064Z,35.6810
2023-01-05T00:35:32.161Z,35.6530
2023-01-05T00:35:43.293Z,35.6000
2023-01-05T00:35:54.554Z,35.6120
2023-01-05T00:36:05.720Z,35.6810
2023-01-05T00:36:16.953Z,35.7440
2023-01-05T00:36:28.127Z,35.7830
2023-01-05T00:36:39.186Z,35.7890
2023-01-05T00:36:50.251Z,35.7410
2023-01-05T00:37:01.399Z,35.7010
2023-01-05T00:37:12.608Z,35.6380
2023-01-05T00:37:23.800Z,35.7010
2023-01-05T00:37:35.004Z,35.7350
2023-01-05T00:37:46.199Z,35.7530
2023-01-05T00:37:57.424Z,35.8150
2023-01-05T00:38:08.512Z,35.8730
2023-01-05T00:38:19.603Z,35.8320
2023-01-05T00:38:30.705Z,35.8100
2023-01-05T00:38:41.893Z,35.7810
2023-01-05T00:38:52.958Z,35.7350
2023-01-05T00:39:04.058Z,35.6790
2023-01-05T00:39:15.183Z,35.6150
2023-01-05T00:39:26.238Z,35.5870
2023-01-05T00:39:37.328Z,35.6440
2023-01-05T00:39:48.441Z,35.6900
2023-01-05T00:39:59.514Z,35.7930
2023-01-05T00:40:10.622Z,35.8620
2023-01-05T00:40:21.719Z,35.9070
2023-01-05T00:40:32.776Z,35.9420
2023-01-05T00:40:43.866Z,36.0100
2023-01-05T00:40:55.003Z,36.0080
2023-01-05T00:41:06.064Z,36.0140
2023-01-05T00:41:17.158Z,35.9860
2023-01-05T00:41:28.219Z,35.9880
2023-01-05T00:41:39.307Z,35.9990
2023-01-05T00:41:50.358Z,35.8740
2023-01-05T00:42:01.558Z,35.7880
2023-01-05T00:42:12.593Z,35.7820
2023-01-05T00:42:23.661Z,35.7560
2023-01-05T00:42:34.847Z,35.7390
2023-01-05T00:42:46.040Z,35.7170
2023-01-05T00:42:57.270Z,35.6870
2023-01-05T00:43:08.460Z,35.7760
2023-01-05T00:43:19.522Z,35.9010
2023-01-05T00:43:30.591Z,35.9760
2023-01-05T00:43:41.723Z,35.9160
2023-01-05T00:43:52.924Z,35.8190
2023-01-05T00:44:04.118Z,35.7280
2023-01-05T00:44:15.321Z,35.7070
2023-01-05T00:44:26.519Z,35.7410
2023-01-05T00:44:37.723Z,35.7810
2023-01-05T00:44:48.996Z,35.8700
2023-01-05T00:45:00.127Z,35.8020
2023-01-05T00:45:11.313Z,35.7450
2023-01-05T00:45:22.381Z,35.7700
2023-01-05T00:45:33.505Z,35.7870
2023-01-05T00:45:44.637Z,35.8150
2023-01-05T00:45:55.844Z,35.8670
2023-01-05T00:46:07.149Z,35.9070
2023-01-05T00:46:18.362Z,35.8960
2023-01-05T00:46:29.453Z,35.9370
2023-01-05T00:46:40.602Z,35.9180
2023-01-05T00:46:51.828Z,35.8560
2023-01-05T00:47:02.997Z,35.8620
2023-01-05T00:47:14.203Z,35.9240
2023-01-05T00:47:25.407Z,35.9590
2023-01-05T00:47:36.607Z,35.9370
2023-01-05T00:47:47.793Z,35.8730
2023-01-05T00:47:59.009Z,35.8790
2023-01-05T00:48:10.053Z,35.9070
2023-01-05T00:48:21.138Z,35.9240
2023-01-05T00:48:32.193Z,35.8830
2023-01-05T00:48:43.259Z,35.8700
2023-01-05T00:48:54.367Z,35.8150
2023-01-05T00:49:05.569Z,35.7700
2023-01-05T00:49:16.759Z,35.7810
2023-01-05T00:49:27.963Z,35.8270
2023-01-05T00:49:39.037Z,35.8380
2023-01-05T00:49:50.114Z,35.7870
2023-01-05T00:50:01.241Z,35.7240
2023-01-05T00:50:12.453Z,35.7460
2023-01-05T00:50:23.638Z,35.7350
2023-01-05T00:50:34.867Z,35.7210
2023-01-05T00:50:46.039Z,35.7090
2023-01-05T00:50:57.262Z,35.6470
2023-01-05T00:51:08.438Z,35.5950
2023-01-05T00:51:19.681Z,35.5440
2023-01-05T00:51:30.838Z,35.5150
2023-01-05T00:51:41.882Z,35.4600
2023-01-05T00:51:52.963Z,35.4450
2023-01-05T00:52:04.158Z,35.4000
2023-01-05T00:52:15.321Z,35.4110
2023-01-05T00:52:26.392Z,35.5040
2023-01-05T00:52:37.462Z,35.5620
2023-01-05T00:52:48.518Z,35.6590
2023-01-05T00:52:59.619Z,35.6870
2023-01-05T00:53:10.682Z,35.6310
2023-01-05T00:53:21.762Z,35.5900
2023-01-05T00:53:32.832Z,35.5730
2023-01-05T00:53:43.882Z,35.5400
2023-01-05T00:53:54.943Z,35.5040
2023-01-05T00:54:06.046Z,35.5900
2023-01-05T00:54:17.253Z,35.6110
2023-01-05T00:54:28.313Z,35.5830
2023-01-05T00:54:39.432Z,35.5770
2023-01-05T00:54:50.517Z,35.5480
2023-01-05T00:55:01.753Z,35.5550
2023-01-05T00:55:12.930Z,35.5200
2023-01-05T00:55:24.121Z,35.5420
2023-01-05T00:55:35.192Z,35.5770
2023-01-05T00:55:46.272Z,35.5420
2023-01-05T00:55:57.396Z,35.5770
2023-01-05T00:56:08.487Z,35.5940
2023-01-05T00:56:19.558Z,35.5880
2023-01-05T00:56:30.633Z,35.5770
2023-01-05T00:56:41.701Z,35.5360
2023-01-05T00:56:52.759Z,35.5450
2023-01-05T00:57:03.958Z,35.6080
2023-01-05T00:57:15.003Z,35.6460
2023-01-05T00:57:26.061Z,35.6220
2023-01-05T00:57:37.118Z,35.6260
2023-01-05T00:57:48.178Z,35.6490
2023-01-05T00:57:59.322Z,35.6260
2023-01-05T00:58:10.589Z,35.7210
2023-01-05T00:58:21.601Z,35.7500
2023-01-05T00:58:32.671Z,35.6860
2023-01-05T00:58:43.800Z,35.6000
2023-01-05T00:58:55.001Z,35.5720
2023-01-05T00:59:06.211Z,35.6170
2023-01-05T00:59:17.401Z,35.6810
2023-01-05T00:59:28.452Z,35.7380
2023-01-05T00:59:39.544Z,35.7140
2023-01-05T00:59:50.604Z,35.6970
2023-01-05T01:00:01.671Z,35.7530
2023-01-05T01:00:12.765Z,35.7350
2023-01-05T01:00:23.980Z,35.6610
2023-01-05T01:00:35.164Z,35.6270
2023-01-05T01:00:47.922Z,35.7410
2023-01-05T01:00:59.346Z,35.8320
2023-01-05T01:01:10.496Z,35.7590
2023-01-05T01:01:21.716Z,35.6730
2023-01-05T01:01:33.157Z,35.6680
2023-01-05T01:01:44.426Z,35.7240
2023-01-05T01:01:55.719Z,35.7180
2023-01-05T01:02:07.185Z,35.7070
2023-01-05T01:02:18.488Z,35.7760
2023-01-05T01:02:29.827Z,35.8270
2023-01-05T01:02:40.964Z,35.8210
2023-01-05T01:02:52.204Z,35.7990
2023-01-05T01:03:03.398Z,35.7590
2023-01-05T01:03:14.597Z,35.7810
2023-01-05T01:03:25.760Z,35.8360
2023-01-05T01:03:36.949Z,35.8750
2023-01-05T01:03:48.223Z,35.8740
2023-01-05T01:03:59.363Z,35.8680
2023-01-05T01:04:10.527Z,35.8800
2023-01-05T01:04:21.739Z,35.9080
2023-01-05T01:04:32.792Z,35.9020
2023-01-05T01:04:43.880Z,35.9430
2023-01-05T01:04:54.992Z,35.9060
2023-01-05T01:05:06.211Z,35.9340
2023-01-05T01:05:17.417Z,35.9580
2023-01-05T01:05:28.603Z,35.9450
2023-01-05T01:05:39.796Z,35.9340
2023-01-05T01:05:51.008Z,35.9170
2023-01-05T01:06:02.195Z,35.9120
2023-01-05T01:06:13.252Z,35.9510
2023-01-05T01:06:24.312Z,35.9640
2023-01-05T01:06:35.527Z,35.9230
2023-01-05T01:06:46.681Z,35.8630
2023-01-05T01:06:57.881Z,35.8400
2023-01-05T01:07:09.074Z,35.7990
2023-01-05T01:07:20.280Z,35.7770
2023-01-05T01:07:31.497Z,35.7650
2023-01-05T01:07:42.680Z,35.7430
2023-01-05T01:07:53.887Z,35.7600
2023-01-05T01:08:05.073Z,35.7080
2023-01-05T01:08:16.121Z,35.6910
2023-01-05T01:08:27.190Z,35.7110
2023-01-05T01:08:38.358Z,35.6490
2023-01-05T01:08:49.559Z,35.6490
2023-01-05T01:09:00.779Z,35.7810
2023-01-05T01:09:11.979Z,35.8320
2023-01-05T01:09:23.029Z,35.8790
2023-01-05T01:09:34.129Z,35.8830
2023-01-05T01:09:45.171Z,35.8830
2023-01-05T01:09:56.265Z,35.7970
2023-01-05T01:10:07.353Z,35.7610
2023-01-05T01:10:18.452Z,35.7390
2023-01-05T01:10:29.552Z,35.6420
2023-01-05T01:10:40.646Z,35.6440
2023-01-05T01:10:51.796Z,35.7010
2023-01-05T01:11:02.997Z,35.7240
2023-01-05T01:11:14.200Z,35.6790
2023-01-05T01:11:25.248Z,35.6680
2023-01-05T01:11:36.341Z,35.6490
2023-01-05T01:11:47.489Z,35.6100
2023-01-05T01:11:58.694Z,35.5870
2023-01-05T01:12:09.751Z,35.6320
2023-01-05T01:12:20.833Z,35.7240
2023-01-05T01:12:31.881Z,35.7070
2023-01-05T01:12:42.962Z,35.7070
2023-01-05T01:12:54.033Z,35.7460
2023-01-05T01:13:05.238Z,35.7810
2023-01-05T01:13:16.467Z,35.8850
2023-01-05T01:13:27.642Z,35.9420
2023-01-05T01:13:38.691Z,35.9970
2023-01-05T01:13:49.759Z,36.0250
2023-01-05T01:14:00.808Z,36.0520
2023-01-05T01:14:11.870Z,36.0020
2023-01-05T01:14:22.991Z,35.8880
2023-01-05T01:14:34.209Z,35.7390
2023-01-05T01:14:45.266Z,35.6810
2023-01-05T01:14:56.336Z,35.6610
2023-01-05T01:15:07.404Z,35.6320
2023-01-05T01:15:18.459Z,35.7410
2023-01-05T01:15:29.592Z,35.7350
2023-01-05T01:15:40.757Z,35.7590
2023-01-05T01:15:51.959Z,35.7760
2023-01-05T01:16:03.161Z,35.7930
2023-01-05T01:16:14.309Z,35.7350
2023-01-05T01:16:25.387Z,35.6850
2023-01-05T01:16:36.506Z,35.6300
2023-01-05T01:16:47.693Z,35.6470
2023-01-05T01:16:58.911Z,35.6920
2023-01-05T01:17:10.038Z,35.6970
2023-01-05T01:17:21.238Z,35.7210
2023-01-05T01:17:32.440Z,35.7500
2023-01-05T01:17:43.509Z,35.6470
2023-01-05T01:17:54.581Z,35.6000
2023-01-05T01:18:05.726Z,35.5720
2023-01-05T01:18:16.919Z,35.5800
2023-01-05T01:18:28.118Z,35.5570
2023-01-05T01:18:39.331Z,35.5550
2023-01-05T01:18:50.534Z,35.5770
2023-01-05T01:19:05.376Z,35.7020
2023-01-05T01:19:16.830Z,35.7870
2023-01-05T01:19:27.971Z,35.6470
2023-01-05T01:19:39.034Z,35.6060
2023-01-05T01:19:50.112Z,35.5630
2023-01-05T01:20:01.168Z,35.5850
2023-01-05T01:20:12.237Z,35.5630
2023-01-05T01:20:23.313Z,35.5550
2023-01-05T01:20:34.521Z,35.5260
2023-01-05T01:20:45.585Z,35.6060
2023-01-05T01:20:56.652Z,35.7210
2023-01-05T01:21:07.795Z,35.6920
2023-01-05T01:21:19.001Z,35.6580
2023-01-05T01:21:30.212Z,35.6320
2023-01-05T01:21:41.521Z,35.6790
2023-01-05T01:21:52.656Z,35.7990
2023-01-05T01:22:03.819Z,35.8270
2023-01-05T01:22:15.016Z,35.8150
2023-01-05T01:22:26.218Z,35.7760
2023-01-05T01:22:37.436Z,35.7410
2023-01-05T01:22:48.494Z,35.7290
2023-01-05T01:22:59.553Z,35.7590
2023-01-05T01:23:10.698Z,35.7810
2023-01-05T01:23:21.879Z,35.7290
2023-01-05T01:23:33.078Z,35.6790
2023-01-05T01:23:44.278Z,35.6490
2023-01-05T01:23:55.490Z,35.7700
2023-01-05T01:24:06.696Z,35.9370
2023-01-05T01:24:17.883Z,35.9990
2023-01-05T01:24:29.070Z,35.9420
2023-01-05T01:24:40.280Z,35.8960
2023-01-05T01:24:51.348Z,35.8210
2023-01-05T01:25:02.425Z,35.7240
2023-01-05T01:25:13.550Z,35.7590
2023-01-05T01:25:24.760Z,35.9130
2023-01-05T01:25:35.953Z,35.9420
2023-01-05T01:25:47.043Z,35.9070
2023-01-05T01:25:58.093Z,35.8790
2023-01-05T01:26:09.241Z,35.8470
2023-01-05T01:26:20.439Z,35.7780
2023-01-05T01:26:31.642Z,35.7670
2023-01-05T01:26:42.873Z,35.7840
2023-01-05T01:26:54.045Z,35.7700
2023-01-05T01:27:05.232Z,35.7460
2023-01-05T01:27:16.444Z,35.7240
2023-01-05T01:27:27.631Z,35.7290
2023-01-05T01:27:38.841Z,35.7410
2023-01-05T01:27:50.033Z,35.7700
2023-01-05T01:28:01.103Z,35.7290
2023-01-05T01:28:12.186Z,35.7070
2023-01-05T01:28:23.256Z,35.7290
2023-01-05T01:28:34.323Z,35.7410
2023-01-05T01:28:45.376Z,35.7410
2023-01-05T01:28:56.602Z,35.7760
2023-01-05T01:29:07.671Z,35.8960
2023-01-05T01:29:18.729Z,35.9650
2023-01-05T01:29:29.882Z,35.9590
2023-01-05T01:29:41.083Z,35.9420
2023-01-05T01:29:52.290Z,35.9050
2023-01-05T01:30:03.509Z,35.9160
2023-01-05T01:30:14.570Z,35.9080
2023-01-05T01:30:25.687Z,35.8740
2023-01-05T01:30:36.885Z,35.8340
2023-01-05T01:30:48.003Z,35.7990
2023-01-05T01:30:59.067Z,35.8340
2023-01-05T01:31:10.169Z,35.8510
2023-01-05T01:31:21.371Z,35.9430
2023-01-05T01:31:32.808Z,36.0180
2023-01-05T01:31:44.001Z,36.0400
2023-01-05T01:31:55.171Z,36.0830
2023-01-05T01:32:06.358Z,36.1230
2023-01-05T01:32:17.443Z,36.0890
2023-01-05T01:32:28.507Z,36.0890
2023-01-05T01:32:39.641Z,36.1470
2023-01-05T01:32:50.842Z,36.1870
2023-01-05T01:33:02.031Z,36.2150
2023-01-05T01:33:13.239Z,36.2150
2023-01-05T01:33:24.450Z,36.1470
2023-01-05T01:33:35.642Z,36.0720
2023-01-05T01:33:46.855Z,35.9230
2023-01-05T01:33:58.041Z,35.8480
2023-01-05T01:34:09.231Z,35.8480
2023-01-05T01:34:20.291Z,35.9770
2023-01-05T01:34:31.328Z,36.0120
2023-01-05T01:34:43.163Z,36.0230
2023-01-05T01:34:54.353Z,36.0500
2023-01-05T01:35:05.553Z,36.0200
2023-01-05T01:35:16.764Z,36.0310
2023-01-05T01:35:27.961Z,36.0440
2023-01-05T01:35:39.164Z,36.0610
2023-01-05T01:35:50.361Z,36.0670
2023-01-05T01:36:01.552Z,36.0550
2023-01-05T01:36:12.764Z,36.0260
2023-01-05T01:36:23.792Z,35.9860
2023-01-05T01:36:34.841Z,35.9400
2023-01-05T01:36:46.065Z,35.9340
2023-01-05T01:36:57.131Z,35.9600
2023-01-05T01:37:08.179Z,35.9430
2023-01-05T01:37:19.321Z,35.9430
2023-01-05T01:37:30.383Z,35.9430
2023-01-05T01:37:41.457Z,35.9370
2023-01-05T01:37:52.592Z,35.9480
2023-01-05T01:38:03.641Z,35.9600
2023-01-05T01:38:14.991Z,35.9940
2023-01-05T01:38:26.041Z,36.0030
2023-01-05T01:38:37.114Z,35.9990
2023-01-05T01:38:48.276Z,36.0120
2023-01-05T01:38:59.490Z,36.0180
2023-01-05T01:39:10.678Z,36.0520
2023-01-05T01:39:21.883Z,36.0460
2023-01-05T01:39:33.082Z,36.0060
2023-01-05T01:39:44.179Z,35.8960
2023-01-05T01:39:55.244Z,35.7710
2023-01-05T01:40:06.354Z,35.7280
2023-01-05T01:40:17.582Z,35.7050
2023-01-05T01:40:28.803Z,35.7220
2023-01-05T01:40:39.859Z,35.7170
2023-01-05T01:40:50.982Z,35.7110
2023-01-05T01:41:02.042Z,35.8100
2023-01-05T01:41:13.101Z,35.8790
2023-01-05T01:41:24.183Z,35.8960
2023-01-05T01:41:35.318Z,35.8380
2023-01-05T01:41:46.391Z,35.8320
2023-01-05T01:41:57.465Z,35.8210
2023-01-05T01:42:08.603Z,35.8040
2023-01-05T01:42:19.803Z,35.7530
2023-01-05T01:42:30.907Z,35.7290
2023-01-05T01:42:41.951Z,35.7290
2023-01-05T01:42:53.073Z,35.7930
2023-01-05T01:43:04.278Z,35.7810
2023-01-05T01:43:15.487Z,35.7930
2023-01-05T01:43:26.582Z,35.7990
2023-01-05T01:43:37.623Z,35.7990
2023-01-05T01:43:48.667Z,35.7930
2023-01-05T01:43:59.739Z,35.8150
2023-01-05T01:44:10.839Z,35.8150
2023-01-05T01:44:22.034Z,35.9070
2023-01-05T01:44:33.098Z,35.8670
2023-01-05T01:44:44.162Z,35.7700
2023-01-05T01:44:55.208Z,35.8150
2023-01-05T01:45:06.251Z,35.8150
2023-01-05T01:45:17.427Z,35.8210
2023-01-05T01:45:28.707Z,35.8560
2023-01-05T01:45:39.838Z,35.8830
2023-01-05T01:45:50.919Z,35.8640
2023-01-05T01:46:02.059Z,35.8140
2023-01-05T01:46:13.254Z,35.8190
2023-01-05T01:46:24.449Z,35.8830
2023-01-05T01:46:35.578Z,35.9050
2023-01-05T01:46:46.706Z,35.8740
2023-01-05T01:46:57.763Z,35.8910
2023-01-05T01:47:08.823Z,35.9600
2023-01-05T01:47:19.882Z,35.9880
2023-01-05T01:47:30.960Z,35.9260
2023-01-05T01:47:42.087Z,35.8960
2023-01-05T01:47:53.113Z,35.8260
2023-01-05T01:48:04.188Z,35.8950
2023-01-05T01:48:15.319Z,35.9860
2023-01-05T01:48:26.372Z,36.0260
2023-01-05T01:48:37.452Z,36.0090
2023-01-05T01:48:48.605Z,36.0260
2023-01-05T01:48:59.805Z,36.0550
2023-01-05T01:49:11.001Z,36.0500
2023-01-05T01:49:22.198Z,35.9810
2023-01-05T01:49:33.402Z,35.9060
2023-01-05T01:49:44.608Z,35.9400
2023-01-05T01:49:55.685Z,35.9900
2023-01-05T01:50:06.749Z,35.9730
2023-01-05T01:50:17.804Z,35.9110
2023-01-05T01:50:28.882Z,35.8700
2023-01-05T01:50:39.956Z,35.9060
2023-01-05T01:50:51.152Z,36.0950
2023-01-05T01:51:08.002Z,36.1810
2023-01-05T01:51:19.342Z,36.3700
2023-01-05T01:51:30.530Z,36.2950
2023-01-05T01:51:41.721Z,36.1740
2023-01-05T01:51:52.961Z,36.1920
2023-01-05T01:52:04.117Z,36.1860
2023-01-05T01:52:15.326Z,36.1680
2023-01-05T01:52:26.517Z,36.1510
2023-01-05T01:52:37.580Z,36.1340
2023-01-05T01:52:48.645Z,36.0480
2023-01-05T01:52:59.819Z,36.0370
2023-01-05T01:53:10.993Z,36.0420
2023-01-05T01:53:22.210Z,36.0590
2023-01-05T01:53:33.392Z,36.1000
2023-01-05T01:53:44.601Z,36.0940
2023-01-05T01:53:55.817Z,36.1230
2023-01-05T01:54:06.865Z,36.1450
2023-01-05T01:54:17.919Z,36.1400
2023-01-05T01:54:28.983Z,36.1400
2023-01-05T01:54:40.057Z,36.1340
2023-01-05T01:54:51.131Z,36.1400
2023-01-05T01:55:02.422Z,36.1510
2023-01-05T01:55:13.581Z,36.1680
2023-01-05T01:55:24.758Z,36.1970
2023-01-05T01:55:35.958Z,36.2030
2023-01-05T01:55:47.160Z,36.1620
2023-01-05T01:55:58.358Z,36.1280
2023-01-05T01:56:09.562Z,36.1170
2023-01-05T01:56:20.764Z,36.1450
2023-01-05T01:56:31.989Z,36.1860
2023-01-05T01:56:43.152Z,36.2090
2023-01-05T01:56:54.410Z,36.1970
2023-01-05T01:57:05.473Z,36.1570
2023-01-05T01:57:16.561Z,36.1340
2023-01-05T01:57:27.632Z,36.1170
2023-01-05T01:57:38.848Z,36.1170
2023-01-05T01:57:50.046Z,36.1420
2023-01-05T01:58:01.246Z,36.1010
2023-01-05T01:58:12.438Z,36.0780
2023-01-05T01:58:23.654Z,36.1470
2023-01-05T01:58:34.855Z,36.1980
2023-01-05T01:58:45.921Z,36.1340
2023-01-05T01:58:56.998Z,36.0940
2023-01-05T01:59:08.123Z,36.0720
2023-01-05T01:59:19.349Z,36.1230
2023-01-05T01:59:30.522Z,36.1920
2023-01-05T01:59:41.733Z,36.1980
2023-01-05T01:59:52.922Z,36.1920
2023-01-05T02:00:04.116Z,36.1580
2023-01-05T02:00:15.374Z,36.1980
2023-01-05T02:00:26.527Z,36.2200
2023-01-05T02:00:37.727Z,36.2670
2023-01-05T02:00:48.802Z,36.2090
2023-01-05T02:00:59.908Z,36.0940
2023-01-05T02:01:11.096Z,36.0140
2023-01-05T02:01:22.316Z,35.9960
2023-01-05T02:01:33.528Z,36.0250
2023-01-05T02:01:44.793Z,36.0530
2023-01-05T02:01:56.016Z,36.0940
2023-01-05T02:02:07.424Z,36.1120
2023-01-05T02:02:18.660Z,36.1230
2023-01-05T02:02:29.925Z,36.1280
2023-01-05T02:02:41.282Z,36.1230
2023-01-05T02:02:52.351Z,36.0310
2023-01-05T02:03:03.443Z,36.0090
2023-01-05T02:03:14.533Z,36.1450
2023-01-05T02:03:25.598Z,36.1970
2023-01-05T02:03:36.665Z,36.1970
2023-01-05T02:03:47.813Z,36.2030
2023-01-05T02:03:58.880Z,36.1570
2023-01-05T02:04:10.002Z,36.1000
2023-01-05T02:04:21.213Z,36.0260
2023-01-05T02:04:32.375Z,36.0200
2023-01-05T02:04:43.571Z,36.0200
2023-01-05T02:04:54.731Z,36.0140
2023-01-05T02:05:05.885Z,36.0290
2023-01-05T02:05:16.958Z,36.0910
2023-01-05T02:05:28.032Z,36.1090
2023-01-05T02:05:39.186Z,36.1430
2023-01-05T02:05:50.362Z,36.1260
2023-01-05T02:06:01.552Z,36.1040
2023-01-05T02:06:12.764Z,36.1380
2023-01-05T02:06:23.956Z,36.1660
2023-01-05T02:06:35.023Z,36.1090
2023-01-05T02:06:46.083Z,36.0140
2023-01-05T02:06:57.288Z,35.9980
2023-01-05T02:07:08.342Z,35.9750
2023-01-05T02:07:19.411Z,35.9060
2023-01-05T02:07:30.512Z,35.9080
2023-01-05T02:07:41.721Z,35.9370
2023-01-05T02:07:52.920Z,35.9200
2023-01-05T02:08:04.122Z,35.9990
2023-01-05T02:08:15.353Z,36.0230
2023-01-05T02:08:26.521Z,36.0230
2023-01-05T02:08:37.723Z,35.9940
2023-01-05T02:08:48.798Z,36.0400
2023-01-05T02:08:59.862Z,36.0630
2023-01-05T02:09:11.017Z,35.9940
2023-01-05T02:09:22.072Z,35.9600
2023-01-05T02:09:33.141Z,35.9990
2023-01-05T02:09:44.273Z,36.0230
2023-01-05T02:09:55.485Z,36.0680
2023-01-05T02:10:06.690Z,36.0520
2023-01-05T02:10:17.896Z,36.0400
2023-01-05T02:10:29.079Z,35.9770
2023-01-05T02:10:40.281Z,35.9600
2023-01-05T02:10:51.481Z,36.0350
2023-01-05T02:11:02.738Z,36.0520
2023-01-05T02:11:13.886Z,36.0350
2023-01-05T02:11:24.921Z,36.0850
2023-01-05T02:11:35.996Z,36.1040
2023-01-05T02:11:47.162Z,36.1260
2023-01-05T02:11:58.403Z,36.1210
2023-01-05T02:12:09.558Z,36.1320
2023-01-05T02:12:20.764Z,36.1660
2023-01-05T02:12:31.802Z,36.1960
2023-01-05T02:12:42.878Z,36.2290
2023-01-05T02:12:54.047Z,36.2350
2023-01-05T02:13:05.233Z,36.2790
2023-01-05T02:13:16.294Z,36.3360
2023-01-05T02:13:31.382Z,36.3480
2023-01-05T02:13:42.732Z,36.4900
2023-01-05T02:13:53.756Z,36.4270
2023-01-05T02:14:04.842Z,36.3980
2023-01-05T02:14:15.961Z,36.4450
2023-01-05T02:14:27.003Z,36.4790
2023-01-05T02:14:38.064Z,36.4510
2023-01-05T02:14:49.226Z,36.3700
2023-01-05T02:15:00.450Z,36.3400
2023-01-05T02:15:11.620Z,36.3700
2023-01-05T02:15:22.814Z,36.3930